SPHI/CIX METAR and TAF weather

Enter ICAO airport designator
Station Type Date Time Source
SPHI METAR 2019/05/20 10:00 UTC NOAA

SPHI 201000Z 17011KT CAVOK 20/17 Q1012 RMK BKN120 PP000


Station Type Date Time Source
SPHI Decoded METAR 2019/05/20 10:00 UTC NOAA

Chiclayo, Peru (SPHI) 06-47S 079-50W 34M
May 20, 2019 - 06:00 AM EDT / 2019.05.20 1000 UTC
Wind: from the S (170 degrees) at 13 MPH (11 KT):0
Visibility: greater than 7 mile(s):0
Temperature: 68 F (20 C)
Dew Point: 62 F (17 C)
Relative Humidity: 82%
Pressure (altimeter): 29.88 in. Hg (1012 hPa)
ob: SPHI 201000Z 17011KT CAVOK 20/17 Q1012 RMK BKN120 PP000
cycle: 10

Station Type Date Time Source
SPHI TAF 2019/05/20 10:35 UTC NOAA

TAF
AMD SPHI 201000Z 2010/2106 17010KT CAVOK TX27/2019Z TN18/2011Z
TEMPO 2011/2013 BKN010
FM202000 18018KT CAVOK
FM210400 18010KT 9999 SCT050

Example: see airport list